Hafnia Robson — 9V3228 — position and weather

sailwx.info

Track history (hours):
 
Tides and Currents Weather Stations Pressure Air Temp Water Temp Dewpoint Dewpoint Depression Visibility Wind Speed Wind Dir Waves Ship Positions

Hafnia Robson

Last reported at 2018-Feb-11 13:46 UTC. Time now 2018-Feb-20 01:50 UTC.
Position N 35°59' W 005°14'.
Warning: this ship's position is 8 days out of date.

Length 182 m; draft 10.3 m.

Type: Tanker. MMSI: 565972000.

Date/timePositionNaut miles runAvg speedWind from/ knotsBaromVisibWave heightAir tempDewpointWater temp
2018-Feb-11 13:46N 35°59' W 005°14'414.7
2018-Feb-11 13:30N 35°59' W 005°19'714.0
2018-Feb-11 13:00N 35°57' W 005°27'  
2018-Feb-07 05:11N 50°30' W 000°15'313.5
2018-Feb-07 04:59N 50°30' W 000°11'613.0
2018-Feb-07 04:30N 50°31' W 000°01'712.7
2018-Feb-07 03:59N 50°33' E 000°09'612.4
2018-Feb-07 03:28N 50°34' E 000°18'611.9
2018-Feb-07 03:00N 50°36' E 000°27'4612.7
2018-Feb-06 23:23N 51°01' E 001°28'615.4
2018-Feb-06 23:00N 51°06' E 001°34'1514.6
2018-Feb-06 22:00N 51°17' E 001°49'713.2
2018-Feb-06 21:30N 51°22' E 001°55'510.5
2018-Feb-06 21:00N 51°25' E 002°03'712.5
2018-Feb-06 20:28N 51°22' E 002°13'511.7
2018-Feb-06 20:00N 51°21' E 002°21'1111.4
2018-Feb-06 19:00N 51°23' E 002°39'510.6
2018-Feb-06 18:30N 51°22' E 002°48'611.3
2018-Feb-06 18:00N 51°23' E 002°56'510.7
2018-Feb-06 17:30N 51°24' E 003°05'510.8
2018-Feb-06 17:00N 51°25' E 003°13'5 9.8
2018-Feb-06 16:30N 51°24' E 003°21'9 9.5
2018-Feb-06 15:34N 51°26' E 003°35'1 9.9
2018-Feb-06 15:28N 51°26' E 003°37'4 8.4
2018-Feb-06 15:00N 51°25' E 003°43'2 4.7
2018-Feb-06 14:30N 51°24' E 003°46'0 0.0
2018-Feb-06 13:50N 51°24' E 003°46'0 0.0
2018-Feb-06 13:29N 51°24' E 003°46'0 0.3
2018-Feb-06 12:56N 51°24' E 003°46'0 0.2
2018-Feb-06 12:29N 51°24' E 003°46'0 0.0
2018-Feb-06 11:59N 51°24' E 003°46'0 0.0
2018-Feb-06 11:26N 51°24' E 003°46'0 0.0
2018-Feb-06 10:59N 51°24' E 003°46'0 0.0
2018-Feb-06 10:29N 51°24' E 003°46'0 0.0
2018-Feb-06 09:59N 51°24' E 003°46'0 0.0
2018-Feb-06 09:26N 51°24' E 003°46'0 0.1
2018-Feb-06 08:56N 51°24' E 003°46'0 0.0
2018-Feb-06 08:26N 51°24' E 003°46'0 0.0
2018-Feb-06 07:56N 51°24' E 003°46'0 0.0
2018-Feb-06 07:20N 51°24' E 003°46'8 3.6
2018-Feb-06 05:00N 51°26' E 003°58'8 7.6
2018-Feb-06 04:00N 51°23' E 004°10'4 7.4
2018-Feb-06 03:29N 51°21' E 004°15'1 2.9
2018-Feb-06 03:00N 51°21' E 004°17'0 0.0
2018-Feb-06 02:30N 51°21' E 004°17'1 1.8
2018-Feb-06 01:49N 51°20' E 004°18'3 0.1
2018-Feb-04 04:10N 51°17' E 004°20'0 0.0
2018-Feb-03 23:31N 51°17' E 004°20'0 0.1
2018-Feb-03 23:29N 51°17' E 004°20'2 3.4
2018-Feb-03 23:00N 51°19' E 004°19'2 4.5
2018-Feb-03 22:29N 51°21' E 004°17'0 0.0
2018-Feb-03 22:00N 51°21' E 004°17'0 0.2
2018-Feb-03 21:29N 51°21' E 004°17'2 3.8
2018-Feb-03 21:00N 51°21' E 004°14'3 6.0
2018-Feb-03 20:28N 51°23' E 004°10'4 8.7
2018-Feb-03 20:01N 51°22' E 004°03'9 6.1
2018-Feb-03 18:30N 51°21' E 003°49'5 9.9
2018-Feb-03 18:01N 51°24' E 003°43'4 7.8
2018-Feb-03 17:30N 51°26' E 003°38'4 7.5
2018-Feb-03 17:00N 51°27' E 003°32'11 9.9
2018-Feb-03 15:53N 51°37' E 003°22'  
Track history (hours):
 
Tides and Currents Weather Stations Pressure Air Temp Water Temp Dewpoint Dewpoint Depression Visibility Wind Speed Wind Dir Waves Ship Positions

Hafnia Robson

Last reported at 2018-Feb-11 13:46 UTC. Time now 2018-Feb-20 01:50 UTC.
Position N 35°59' W 005°14'.
Warning: this ship's position is 8 days out of date.

Length 182 m; draft 10.3 m.

Type: Tanker. MMSI: 565972000.

Date/timePositionNaut miles runAvg speedWind from/ knotsBaromVisibWave heightAir tempDewpointWater temp
2018-Feb-11 13:46N 35°59' W 005°14'414.7
2018-Feb-11 13:30N 35°59' W 005°19'714.0
2018-Feb-11 13:00N 35°57' W 005°27'  
2018-Feb-07 05:11N 50°30' W 000°15'313.5
2018-Feb-07 04:59N 50°30' W 000°11'613.0
2018-Feb-07 04:30N 50°31' W 000°01'712.7
2018-Feb-07 03:59N 50°33' E 000°09'612.4
2018-Feb-07 03:28N 50°34' E 000°18'611.9
2018-Feb-07 03:00N 50°36' E 000°27'4612.7
2018-Feb-06 23:23N 51°01' E 001°28'615.4
2018-Feb-06 23:00N 51°06' E 001°34'1514.6
2018-Feb-06 22:00N 51°17' E 001°49'713.2
2018-Feb-06 21:30N 51°22' E 001°55'510.5
2018-Feb-06 21:00N 51°25' E 002°03'712.5
2018-Feb-06 20:28N 51°22' E 002°13'511.7
2018-Feb-06 20:00N 51°21' E 002°21'1111.4
2018-Feb-06 19:00N 51°23' E 002°39'510.6
2018-Feb-06 18:30N 51°22' E 002°48'611.3
2018-Feb-06 18:00N 51°23' E 002°56'510.7
2018-Feb-06 17:30N 51°24' E 003°05'510.8
2018-Feb-06 17:00N 51°25' E 003°13'5 9.8
2018-Feb-06 16:30N 51°24' E 003°21'9 9.5
2018-Feb-06 15:34N 51°26' E 003°35'1 9.9
2018-Feb-06 15:28N 51°26' E 003°37'4 8.4
2018-Feb-06 15:00N 51°25' E 003°43'2 4.7
2018-Feb-06 14:30N 51°24' E 003°46'0 0.0
2018-Feb-06 13:50N 51°24' E 003°46'0 0.0
2018-Feb-06 13:29N 51°24' E 003°46'0 0.3
2018-Feb-06 12:56N 51°24' E 003°46'0 0.2
2018-Feb-06 12:29N 51°24' E 003°46'0 0.0
2018-Feb-06 11:59N 51°24' E 003°46'0 0.0
2018-Feb-06 11:26N 51°24' E 003°46'0 0.0
2018-Feb-06 10:59N 51°24' E 003°46'0 0.0
2018-Feb-06 10:29N 51°24' E 003°46'0 0.0
2018-Feb-06 09:59N 51°24' E 003°46'0 0.0
2018-Feb-06 09:26N 51°24' E 003°46'0 0.1
2018-Feb-06 08:56N 51°24' E 003°46'0 0.0
2018-Feb-06 08:26N 51°24' E 003°46'0 0.0
2018-Feb-06 07:56N 51°24' E 003°46'0 0.0
2018-Feb-06 07:20N 51°24' E 003°46'8 3.6
2018-Feb-06 05:00N 51°26' E 003°58'8 7.6
2018-Feb-06 04:00N 51°23' E 004°10'4 7.4
2018-Feb-06 03:29N 51°21' E 004°15'1 2.9
2018-Feb-06 03:00N 51°21' E 004°17'0 0.0
2018-Feb-06 02:30N 51°21' E 004°17'1 1.8
2018-Feb-06 01:49N 51°20' E 004°18'3 0.1
2018-Feb-04 04:10N 51°17' E 004°20'0 0.0
2018-Feb-03 23:31N 51°17' E 004°20'0 0.1
2018-Feb-03 23:29N 51°17' E 004°20'2 3.4
2018-Feb-03 23:00N 51°19' E 004°19'2 4.5
2018-Feb-03 22:29N 51°21' E 004°17'0 0.0
2018-Feb-03 22:00N 51°21' E 004°17'0 0.2
2018-Feb-03 21:29N 51°21' E 004°17'2 3.8
2018-Feb-03 21:00N 51°21' E 004°14'3 6.0
2018-Feb-03 20:28N 51°23' E 004°10'4 8.7
2018-Feb-03 20:01N 51°22' E 004°03'9 6.1
2018-Feb-03 18:30N 51°21' E 003°49'5 9.9
2018-Feb-03 18:01N 51°24' E 003°43'4 7.8
2018-Feb-03 17:30N 51°26' E 003°38'4 7.5
2018-Feb-03 17:00N 51°27' E 003°32'11 9.9
2018-Feb-03 15:53N 51°37' E 003°22'  

Dump ship's entire track history